createdAt,value
2023-08-27T00:00:16.318Z,8.48
2023-08-27T00:02:43.272Z,7.45
2023-08-27T00:05:10.875Z,7.90
2023-08-27T00:07:38.317Z,8.27
2023-08-27T00:10:05.690Z,8.38
2023-08-27T00:12:32.636Z,8.85
2023-08-27T00:14:59.646Z,8.57
2023-08-27T00:17:26.728Z,9.55
2023-08-27T00:19:53.782Z,8.32
2023-08-27T00:22:21.373Z,8.23
2023-08-27T00:24:48.857Z,8.90
2023-08-27T00:27:15.936Z,8.63
2023-08-27T00:29:43.152Z,9.10
2023-08-27T00:32:23.231Z,9.20
2023-08-27T00:34:52.542Z,9.90
2023-08-27T00:37:20.364Z,9.48
2023-08-27T00:39:47.425Z,9.15
2023-08-27T00:42:14.588Z,10.45
2023-08-27T00:44:41.616Z,10.35
2023-08-27T00:47:09.915Z,10.90
2023-08-27T00:49:38.996Z,10.45
2023-08-27T00:52:06.996Z,10.63
2023-08-27T00:54:55.642Z,9.57
2023-08-27T00:57:22.790Z,9.85
2023-08-27T00:59:50.602Z,10.20
2023-08-27T01:02:17.750Z,10.00
2023-08-27T01:04:44.802Z,11.07
2023-08-27T01:07:18.417Z,11.45
2023-08-27T01:09:53.303Z,11.00
2023-08-27T01:12:49.467Z,12.18
2023-08-27T01:15:18.334Z,12.00
2023-08-27T01:17:47.001Z,11.75
2023-08-27T01:20:14.213Z,13.13
2023-08-27T01:22:41.224Z,12.93
2023-08-27T01:25:09.402Z,12.50
2023-08-27T01:27:41.254Z,12.40
2023-08-27T01:30:16.416Z,12.50
2023-08-27T01:32:50.539Z,13.07
2023-08-27T01:35:18.148Z,12.38
2023-08-27T01:37:45.716Z,12.35
2023-08-27T01:40:12.949Z,12.63
2023-08-27T01:42:40.449Z,13.82
2023-08-27T01:45:10.112Z,11.75
2023-08-27T01:47:37.137Z,12.43
2023-08-27T01:50:24.319Z,12.57
2023-08-27T01:52:53.785Z,12.90
2023-08-27T01:55:40.730Z,12.43
2023-08-27T01:58:07.828Z,11.15
2023-08-27T02:00:35.749Z,11.57
2023-08-27T02:03:03.085Z,13.65
2023-08-27T02:05:30.276Z,12.05
2023-08-27T02:07:57.257Z,11.25
2023-08-27T02:10:24.249Z,11.95
2023-08-27T02:12:51.928Z,11.20
2023-08-27T02:15:18.889Z,11.20
2023-08-27T02:17:45.882Z,11.40
2023-08-27T02:20:12.889Z,11.45
2023-08-27T02:22:39.970Z,10.85
2023-08-27T02:25:07.770Z,10.40
2023-08-27T02:27:34.916Z,11.10
2023-08-27T02:30:01.890Z,9.77
2023-08-27T02:32:29.559Z,10.60
2023-08-27T02:34:57.328Z,10.75
2023-08-27T02:37:24.325Z,9.60
2023-08-27T02:39:51.271Z,11.57
2023-08-27T02:42:18.231Z,10.15
2023-08-27T02:45:06.045Z,10.07
2023-08-27T02:47:33.099Z,9.32
2023-08-27T02:50:00.187Z,10.38
2023-08-27T02:52:27.197Z,10.30
2023-08-27T02:54:54.207Z,10.48
2023-08-27T02:57:21.253Z,10.95
2023-08-27T02:59:48.536Z,10.38
2023-08-27T03:02:16.360Z,10.60
2023-08-27T03:04:43.594Z,10.43
2023-08-27T03:07:10.625Z,10.70
2023-08-27T03:09:37.666Z,8.93
2023-08-27T03:12:05.042Z,11.38
2023-08-27T03:14:32.050Z,11.18
2023-08-27T03:16:59.463Z,10.18
2023-08-27T03:19:26.460Z,11.45
2023-08-27T03:21:53.442Z,11.70
2023-08-27T03:24:20.383Z,10.32
2023-08-27T03:26:47.464Z,10.45
2023-08-27T03:29:15.059Z,11.18
2023-08-27T03:31:42.269Z,10.02
2023-08-27T03:34:09.636Z,11.68
2023-08-27T03:36:36.619Z,10.70
2023-08-27T03:39:03.697Z,11.13
2023-08-27T03:41:30.730Z,12.18
2023-08-27T03:44:17.799Z,10.07
2023-08-27T03:46:44.874Z,11.20
2023-08-27T03:49:11.970Z,9.63
2023-08-27T03:51:39.472Z,11.05
2023-08-27T03:54:06.566Z,10.23
2023-08-27T03:56:33.588Z,10.88
2023-08-27T03:59:00.563Z,10.98
2023-08-27T04:01:27.542Z,11.60
2023-08-27T04:03:56.435Z,10.45
2023-08-27T04:06:23.557Z,11.30
2023-08-27T04:08:50.548Z,10.27
2023-08-27T04:11:17.623Z,10.48
2023-08-27T04:13:44.582Z,10.00
2023-08-27T04:16:12.448Z,9.93
2023-08-27T04:18:39.464Z,10.00
2023-08-27T04:21:06.476Z,9.43
2023-08-27T04:23:34.547Z,9.77
2023-08-27T04:26:01.782Z,10.27
2023-08-27T04:28:29.017Z,9.57
2023-08-27T04:30:56.344Z,8.80
2023-08-27T04:33:23.361Z,9.15
2023-08-27T04:36:10.449Z,9.82
2023-08-27T04:38:37.404Z,9.70
2023-08-27T04:41:04.446Z,9.70
2023-08-27T04:43:31.432Z,9.77
2023-08-27T04:45:59.243Z,9.52
2023-08-27T04:48:46.233Z,9.32
2023-08-27T04:51:15.816Z,8.98
2023-08-27T04:53:43.114Z,8.68
2023-08-27T04:56:10.088Z,9.48
2023-08-27T04:58:37.092Z,8.93
2023-08-27T05:01:04.125Z,9.48
2023-08-27T05:03:31.172Z,9.90
2023-08-27T05:05:59.558Z,9.82
2023-08-27T05:08:26.907Z,9.73
2023-08-27T05:10:54.162Z,9.93
2023-08-27T05:13:21.496Z,8.98
2023-08-27T05:15:48.522Z,9.45
2023-08-27T05:18:15.581Z,9.68
2023-08-27T05:20:42.658Z,10.32
2023-08-27T05:23:09.678Z,9.77
2023-08-27T05:25:36.880Z,10.75
2023-08-27T05:28:04.610Z,10.50
2023-08-27T05:30:31.824Z,9.23
2023-08-27T05:32:59.733Z,9.60
2023-08-27T05:35:27.820Z,8.52
2023-08-27T05:38:25.345Z,9.90
2023-08-27T05:40:53.889Z,10.20
2023-08-27T05:43:21.192Z,9.73
2023-08-27T05:45:48.232Z,10.13
2023-08-27T05:48:17.235Z,9.45
2023-08-27T05:50:45.862Z,9.38
2023-08-27T05:53:13.897Z,10.43
2023-08-27T05:55:40.894Z,10.40
2023-08-27T05:58:07.834Z,11.27
2023-08-27T06:00:35.642Z,10.95
2023-08-27T06:03:02.919Z,11.50
2023-08-27T06:05:30.011Z,11.75
2023-08-27T06:08:00.189Z,11.68
2023-08-27T06:10:27.423Z,10.65
2023-08-27T06:12:54.391Z,9.88
2023-08-27T06:15:21.573Z,10.75
2023-08-27T06:17:48.908Z,11.65
2023-08-27T06:20:16.418Z,10.50
2023-08-27T06:22:43.392Z,10.65
2023-08-27T06:25:30.335Z,11.48
2023-08-27T06:27:57.729Z,9.95
2023-08-27T06:30:25.034Z,11.25
2023-08-27T06:32:52.131Z,10.93
2023-08-27T06:35:19.160Z,10.73
2023-08-27T06:37:46.221Z,10.32
2023-08-27T06:40:15.161Z,9.82
2023-08-27T06:42:42.836Z,9.52
2023-08-27T06:45:11.224Z,9.52
2023-08-27T06:47:38.944Z,9.48
2023-08-27T06:50:07.588Z,8.32
2023-08-27T06:52:34.717Z,10.18
2023-08-27T06:55:02.480Z,10.60
2023-08-27T07:00:46.048Z,7.90
2023-08-27T07:03:14.074Z,9.70
2023-08-27T07:05:41.120Z,8.75
2023-08-27T07:08:09.409Z,9.10
2023-08-27T07:10:36.378Z,9.00
2023-08-27T07:13:03.381Z,8.55
2023-08-27T07:15:30.394Z,8.70
2023-08-27T07:17:58.262Z,9.05
2023-08-27T07:20:25.687Z,7.60
2023-08-27T07:22:53.149Z,8.48
2023-08-27T07:25:22.840Z,7.40
2023-08-27T07:27:49.896Z,8.32
2023-08-27T07:30:17.238Z,7.65
2023-08-27T07:32:44.218Z,7.60
2023-08-27T07:35:11.188Z,7.05
2023-08-27T07:38:00.239Z,5.78
2023-08-27T07:40:27.665Z,6.60
2023-08-27T07:42:54.808Z,5.63
2023-08-27T07:45:22.212Z,5.60
2023-08-27T07:47:49.770Z,5.03
2023-08-27T07:50:18.033Z,4.97
2023-08-27T07:52:45.095Z,5.50
2023-08-27T07:55:12.088Z,4.95
2023-08-27T07:57:39.194Z,5.00
2023-08-27T08:00:07.700Z,5.18
2023-08-27T08:02:41.795Z,5.00
2023-08-27T08:05:09.344Z,4.95
2023-08-27T08:07:36.518Z,4.95
2023-08-27T08:10:04.855Z,5.38
2023-08-27T08:12:31.967Z,5.22
2023-08-27T08:14:59.037Z,4.75
2023-08-27T08:17:46.514Z,5.05
2023-08-27T08:20:14.635Z,5.50
2023-08-27T08:22:42.113Z,5.13
2023-08-27T08:25:09.556Z,5.00
2023-08-27T08:27:36.524Z,4.22
2023-08-27T08:30:04.934Z,4.32
2023-08-27T08:32:31.876Z,4.47
2023-08-27T08:34:58.849Z,4.25
2023-08-27T08:37:27.256Z,4.50
2023-08-27T08:39:54.258Z,4.32
2023-08-27T08:42:42.644Z,4.45
2023-08-27T08:45:14.989Z,4.38
2023-08-27T08:47:44.925Z,4.78
2023-08-27T08:50:14.801Z,4.55
2023-08-27T08:52:44.164Z,5.68
2023-08-27T08:55:11.879Z,5.75
2023-08-27T08:57:46.072Z,5.95
2023-08-27T09:00:14.032Z,5.85
2023-08-27T09:02:41.790Z,5.43
2023-08-27T09:05:11.251Z,6.13
2023-08-27T09:07:42.070Z,5.72
2023-08-27T09:10:11.419Z,6.35
2023-08-27T09:12:41.383Z,6.13
2023-08-27T09:15:09.802Z,6.30
2023-08-27T09:17:39.872Z,6.25
2023-08-27T09:20:08.675Z,5.80
2023-08-27T09:22:37.848Z,5.30
2023-08-27T09:25:05.656Z,5.38
2023-08-27T09:27:33.586Z,5.28
2023-08-27T09:30:02.099Z,4.68
2023-08-27T09:32:29.485Z,5.65
2023-08-27T09:35:00.748Z,5.07
2023-08-27T09:37:39.059Z,4.65
2023-08-27T09:40:10.299Z,4.07
2023-08-27T09:42:38.849Z,4.70
2023-08-27T09:45:07.310Z,4.03
2023-08-27T09:47:37.439Z,3.90
2023-08-27T09:50:06.404Z,4.15
2023-08-27T09:52:33.662Z,4.90
2023-08-27T09:55:01.042Z,4.90
2023-08-27T09:57:30.147Z,4.65
2023-08-27T09:59:57.076Z,4.43
2023-08-27T10:02:24.002Z,4.30
2023-08-27T10:04:57.887Z,3.67
2023-08-27T10:07:24.907Z,4.50
2023-08-27T10:09:53.782Z,3.75
2023-08-27T10:12:22.853Z,3.33
2023-08-27T10:14:50.010Z,3.05
2023-08-27T10:17:17.499Z,2.60
2023-08-27T10:19:44.850Z,2.22
2023-08-27T10:22:13.259Z,3.08
2023-08-27T10:24:41.348Z,2.97
2023-08-27T10:27:08.345Z,2.83
2023-08-27T10:29:55.604Z,2.90
2023-08-27T10:32:22.721Z,3.30
2023-08-27T10:34:49.843Z,3.10
2023-08-27T10:37:17.133Z,3.92
2023-08-27T10:39:44.577Z,3.30
2023-08-27T10:42:30.872Z,4.35
2023-08-27T10:45:17.769Z,4.13
2023-08-27T10:48:05.219Z,3.40
2023-08-27T10:50:48.172Z,3.80
2023-08-27T10:53:50.575Z,4.25
2023-08-27T10:56:37.793Z,3.53
2023-08-27T10:59:12.521Z,3.60
2023-08-27T11:02:09.700Z,2.95
2023-08-27T11:04:43.083Z,2.97
2023-08-27T11:07:11.502Z,3.22
2023-08-27T11:09:57.301Z,3.60
2023-08-27T11:12:26.327Z,3.30
2023-08-27T11:14:54.334Z,3.85
2023-08-27T11:17:24.965Z,4.47
2023-08-27T11:19:52.031Z,4.47
2023-08-27T11:22:20.552Z,4.38
2023-08-27T11:24:53.451Z,3.95
2023-08-27T11:27:21.448Z,3.60
2023-08-27T11:29:53.296Z,4.07
2023-08-27T11:32:21.617Z,3.22
2023-08-27T11:34:53.024Z,3.65
2023-08-27T11:37:22.149Z,3.95
2023-08-27T11:39:49.536Z,3.80
2023-08-27T11:42:17.354Z,3.83
2023-08-27T11:44:55.951Z,3.78
2023-08-27T11:47:23.800Z,3.33
2023-08-27T11:49:58.644Z,3.05
2023-08-27T11:52:25.961Z,2.88
2023-08-27T11:54:54.065Z,2.85
2023-08-27T11:57:21.740Z,2.80
2023-08-27T12:00:12.620Z,4.85
2023-08-27T12:02:40.811Z,6.13
2023-08-27T12:05:11.164Z,4.00
2023-08-27T12:07:38.459Z,2.80
2023-08-27T12:10:10.502Z,2.50
2023-08-27T12:12:42.118Z,2.45
2023-08-27T12:15:10.115Z,2.28
2023-08-27T12:17:38.674Z,2.17
2023-08-27T12:20:08.744Z,2.00
2023-08-27T12:22:46.278Z,2.08
2023-08-27T12:25:16.493Z,2.30
2023-08-27T12:27:45.818Z,3.20
2023-08-27T12:30:12.932Z,3.55
2023-08-27T12:32:40.677Z,4.03
2023-08-27T12:35:08.137Z,4.70
2023-08-27T12:37:35.875Z,5.68
2023-08-27T12:40:02.935Z,6.57
2023-08-27T12:42:30.236Z,6.10
2023-08-27T12:44:57.129Z,6.07
2023-08-27T12:47:24.635Z,6.00
2023-08-27T12:49:51.816Z,6.40
2023-08-27T12:52:19.265Z,7.30
2023-08-27T12:54:46.323Z,7.40
2023-08-27T12:57:13.297Z,7.93
2023-08-27T12:59:40.342Z,7.70
2023-08-27T13:02:08.659Z,8.10
2023-08-27T13:04:35.853Z,8.77
2023-08-27T13:07:02.875Z,5.55
2023-08-27T13:09:29.884Z,3.47
2023-08-27T13:11:56.865Z,3.28
2023-08-27T13:14:24.820Z,3.28
2023-08-27T13:16:51.811Z,3.40
2023-08-27T13:19:18.907Z,2.90
2023-08-27T13:21:46.962Z,3.60
2023-08-27T13:24:14.616Z,4.47
2023-08-27T13:26:41.643Z,3.80
2023-08-27T13:29:08.649Z,3.60
2023-08-27T13:31:36.049Z,3.78
2023-08-27T13:34:03.313Z,3.97
2023-08-27T13:36:30.242Z,4.07
2023-08-27T13:38:57.270Z,3.80
2023-08-27T13:41:24.626Z,2.70
2023-08-27T13:43:52.056Z,2.65
2023-08-27T13:46:19.059Z,2.30
2023-08-27T13:48:46.112Z,2.17
2023-08-27T13:51:13.236Z,2.22
2023-08-27T13:53:40.148Z,2.13
2023-08-27T13:56:07.291Z,2.08
2023-08-27T13:58:34.854Z,2.25
2023-08-27T14:01:01.936Z,2.30
2023-08-27T14:03:29.133Z,2.60
2023-08-27T14:05:57.185Z,3.50
2023-08-27T14:08:27.979Z,3.47
2023-08-27T14:10:55.105Z,3.30
2023-08-27T14:13:22.459Z,3.80
2023-08-27T14:15:50.648Z,4.38
2023-08-27T14:18:17.749Z,4.40
2023-08-27T14:20:45.072Z,4.28
2023-08-27T14:23:12.183Z,4.90
2023-08-27T14:25:39.219Z,4.80
2023-08-27T14:28:26.346Z,4.25
2023-08-27T14:30:53.368Z,4.13
2023-08-27T14:33:20.307Z,4.85
2023-08-27T14:35:47.251Z,4.97
2023-08-27T14:38:14.190Z,5.32
2023-08-27T14:40:41.259Z,5.80
2023-08-27T14:43:08.244Z,5.15
2023-08-27T14:45:35.187Z,5.07
2023-08-27T14:48:02.425Z,5.03
2023-08-27T14:50:29.686Z,3.03
2023-08-27T14:52:56.713Z,2.30
2023-08-27T14:55:23.824Z,2.20
2023-08-27T14:57:51.245Z,1.27
2023-08-27T15:00:18.763Z,1.50
2023-08-27T15:02:45.815Z,1.15
2023-08-27T15:05:13.726Z,1.00
2023-08-27T15:07:40.672Z,0.90
2023-08-27T15:10:07.866Z,0.80
2023-08-27T15:12:34.912Z,1.00
2023-08-27T15:15:01.852Z,0.65
2023-08-27T15:17:29.584Z,0.65
2023-08-27T15:19:56.557Z,0.77
2023-08-27T15:22:24.285Z,1.05
2023-08-27T15:24:51.236Z,1.10
2023-08-27T15:27:18.711Z,0.90
2023-08-27T15:29:45.643Z,1.20
2023-08-27T15:32:12.618Z,1.45
2023-08-27T15:34:40.065Z,1.30
2023-08-27T15:37:07.009Z,1.23
2023-08-27T15:39:34.066Z,1.75
2023-08-27T15:42:01.280Z,1.58
2023-08-27T15:44:28.302Z,1.35
2023-08-27T15:46:55.332Z,1.25
2023-08-27T15:49:22.345Z,1.15
2023-08-27T15:51:49.286Z,1.20
2023-08-27T15:54:16.246Z,1.60
2023-08-27T15:56:43.287Z,1.20
2023-08-27T15:59:10.239Z,1.92
2023-08-27T16:01:37.238Z,1.90
2023-08-27T16:04:06.588Z,1.60
2023-08-27T16:06:33.984Z,1.70
2023-08-27T16:09:00.920Z,2.20
2023-08-27T16:11:27.922Z,2.28
2023-08-27T16:13:54.879Z,1.80
2023-08-27T16:16:24.302Z,1.67
2023-08-27T16:18:52.380Z,1.83
2023-08-27T16:21:19.345Z,1.60
2023-08-27T16:23:46.904Z,1.73
2023-08-27T16:26:13.965Z,1.50
2023-08-27T16:28:40.895Z,2.00
2023-08-27T16:31:07.909Z,1.85
2023-08-27T16:33:35.393Z,2.30
2023-08-27T16:36:02.374Z,2.22
2023-08-27T16:38:29.413Z,2.42
2023-08-27T16:40:56.529Z,1.90
2023-08-27T16:43:23.467Z,1.90
2023-08-27T16:45:53.292Z,1.77
2023-08-27T16:48:20.666Z,1.80
2023-08-27T16:50:47.638Z,2.08
2023-08-27T16:53:14.681Z,2.83
2023-08-27T16:55:41.863Z,7.80
2023-08-27T16:58:28.842Z,3.17
2023-08-27T17:00:55.808Z,2.58
2023-08-27T17:03:23.600Z,3.38
2023-08-27T17:05:56.376Z,3.00
2023-08-27T17:08:23.324Z,2.45
2023-08-27T17:10:50.792Z,2.97
2023-08-27T17:13:17.799Z,2.60
2023-08-27T17:15:48.159Z,2.90
2023-08-27T17:18:15.284Z,2.92
2023-08-27T17:20:43.760Z,3.70
2023-08-27T17:23:10.784Z,4.70
2023-08-27T17:25:37.740Z,4.07
2023-08-27T17:28:05.006Z,4.03
2023-08-27T17:30:34.345Z,3.22
2023-08-27T17:33:21.377Z,3.40
2023-08-27T17:35:48.356Z,2.97
2023-08-27T17:38:15.408Z,3.72
2023-08-27T17:40:42.761Z,2.83
2023-08-27T17:43:09.894Z,2.90
2023-08-27T17:45:36.989Z,3.08
2023-08-27T17:48:10.796Z,3.10
2023-08-27T17:50:38.394Z,2.67
2023-08-27T17:53:06.961Z,2.92
2023-08-27T17:55:34.412Z,2.50
2023-08-27T17:58:02.251Z,2.33
2023-08-27T18:00:29.461Z,2.03
2023-08-27T18:02:57.180Z,1.48
2023-08-27T18:05:44.141Z,1.63
2023-08-27T18:08:11.137Z,1.77
2023-08-27T18:10:38.090Z,1.85
2023-08-27T18:13:05.081Z,1.80
2023-08-27T18:15:32.109Z,1.88
2023-08-27T18:17:59.174Z,2.30
2023-08-27T18:20:26.272Z,1.60
2023-08-27T18:22:54.032Z,1.70
2023-08-27T18:25:20.978Z,1.60
2023-08-27T18:27:47.970Z,2.00
2023-08-27T18:30:15.075Z,1.60
2023-08-27T18:32:45.205Z,1.70
2023-08-27T18:35:12.337Z,1.27
2023-08-27T18:37:43.317Z,1.52
2023-08-27T18:40:11.584Z,1.58
2023-08-27T18:42:38.571Z,1.60
2023-08-27T18:45:06.558Z,1.70
2023-08-27T18:47:36.445Z,1.70
2023-08-27T18:50:04.458Z,1.60
2023-08-27T18:52:31.423Z,1.88
2023-08-27T18:54:58.583Z,1.85
2023-08-27T18:57:25.538Z,1.85
2023-08-27T18:59:54.163Z,1.80
2023-08-27T19:02:21.856Z,1.70
2023-08-27T19:04:48.883Z,1.75
2023-08-27T19:07:15.825Z,1.85
2023-08-27T19:10:02.827Z,1.80
2023-08-27T19:12:29.810Z,1.60
2023-08-27T19:14:56.830Z,1.60
2023-08-27T19:17:23.804Z,1.60
2023-08-27T19:19:50.774Z,1.90
2023-08-27T19:22:17.679Z,1.75
2023-08-27T19:24:46.356Z,1.88
2023-08-27T19:27:13.913Z,1.80
2023-08-27T19:29:40.872Z,1.80
2023-08-27T19:32:07.898Z,1.77
2023-08-27T19:34:34.845Z,2.50
2023-08-27T19:37:02.011Z,2.80
2023-08-27T19:39:28.997Z,2.47
2023-08-27T19:41:55.953Z,2.65
2023-08-27T19:44:22.922Z,2.50
2023-08-27T19:46:49.987Z,2.95
2023-08-27T19:49:17.022Z,2.65
2023-08-27T19:51:44.118Z,2.50
2023-08-27T19:54:13.471Z,2.58
2023-08-27T19:56:40.696Z,2.63
2023-08-27T19:59:12.322Z,2.75
2023-08-27T20:01:39.401Z,2.47
2023-08-27T20:04:26.688Z,2.35
2023-08-27T20:07:14.323Z,2.50
2023-08-27T20:09:41.299Z,2.80
2023-08-27T20:12:08.659Z,2.90
2023-08-27T20:14:35.828Z,2.30
2023-08-27T20:17:02.826Z,2.75
2023-08-27T20:19:29.838Z,2.25
2023-08-27T20:21:56.781Z,2.60
2023-08-27T20:24:23.863Z,2.55
2023-08-27T20:26:52.418Z,2.70
2023-08-27T20:29:19.485Z,2.70
2023-08-27T20:31:46.460Z,2.85
2023-08-27T20:34:13.945Z,2.60
2023-08-27T20:36:41.068Z,3.28
2023-08-27T20:39:08.539Z,2.65
2023-08-27T20:41:35.486Z,3.40
2023-08-27T20:44:02.501Z,2.63
2023-08-27T20:46:29.548Z,3.08
2023-08-27T20:49:16.665Z,2.95
2023-08-27T20:51:43.641Z,3.30
2023-08-27T20:54:15.845Z,2.90
2023-08-27T20:56:44.056Z,3.15
2023-08-27T20:59:11.004Z,3.10
2023-08-27T21:01:58.984Z,2.65
2023-08-27T21:04:26.155Z,2.80
2023-08-27T21:06:53.127Z,2.80
2023-08-27T21:09:20.200Z,2.60
2023-08-27T21:11:47.199Z,2.70
2023-08-27T21:14:14.152Z,2.50
2023-08-27T21:16:41.089Z,3.20
2023-08-27T21:19:08.100Z,2.60
2023-08-27T21:21:35.017Z,3.10
2023-08-27T21:24:02.100Z,2.67
2023-08-27T21:26:29.058Z,2.67
2023-08-27T21:28:56.854Z,3.15
2023-08-27T21:31:43.658Z,2.88
2023-08-27T21:34:11.202Z,2.38
2023-08-27T21:36:38.158Z,2.80
2023-08-27T21:39:05.513Z,3.42
2023-08-27T21:41:32.424Z,3.00
2023-08-27T21:43:59.464Z,3.22
2023-08-27T21:46:26.437Z,3.35
2023-08-27T21:48:53.432Z,3.15
2023-08-27T21:51:20.418Z,3.65
2023-08-27T21:53:47.409Z,3.72
2023-08-27T21:56:15.417Z,4.03
2023-08-27T21:58:42.385Z,4.72
2023-08-27T22:01:12.936Z,4.60
2023-08-27T22:03:40.253Z,4.80
2023-08-27T22:06:07.438Z,5.45
2023-08-27T22:08:34.465Z,4.93
2023-08-27T22:11:01.458Z,5.57
2023-08-27T22:13:28.449Z,5.63
2023-08-27T22:15:55.438Z,4.80
2023-08-27T22:18:22.476Z,6.00
2023-08-27T22:20:49.490Z,6.13
2023-08-27T22:23:16.581Z,5.82
2023-08-27T22:25:44.469Z,5.82
2023-08-27T22:28:11.485Z,6.90
2023-08-27T22:30:39.248Z,5.70
2023-08-27T22:33:06.357Z,6.43
2023-08-27T22:35:33.447Z,5.97
2023-08-27T22:38:00.412Z,5.90
2023-08-27T22:40:27.392Z,6.93
2023-08-27T22:42:54.394Z,6.22
2023-08-27T22:45:21.397Z,6.72
2023-08-27T22:47:48.550Z,6.72
2023-08-27T22:50:15.522Z,6.53
2023-08-27T22:52:42.990Z,6.38
2023-08-27T22:55:10.050Z,6.47
2023-08-27T22:57:37.042Z,6.85
2023-08-27T23:00:24.097Z,6.53
2023-08-27T23:02:51.299Z,6.53
2023-08-27T23:05:19.219Z,6.50
2023-08-27T23:07:46.213Z,6.43
2023-08-27T23:10:13.163Z,7.22
2023-08-27T23:12:40.159Z,6.88
2023-08-27T23:15:07.738Z,7.00
2023-08-27T23:17:35.840Z,6.45
2023-08-27T23:20:02.829Z,7.00
2023-08-27T23:22:29.895Z,7.15
2023-08-27T23:25:01.615Z,7.10
2023-08-27T23:27:28.709Z,7.07
2023-08-27T23:29:55.946Z,7.07
2023-08-27T23:32:23.847Z,6.78
2023-08-27T23:34:52.634Z,7.45
2023-08-27T23:37:19.617Z,7.22
2023-08-27T23:39:47.098Z,7.60
2023-08-27T23:42:14.107Z,8.23
2023-08-27T23:44:48.830Z,8.48
2023-08-27T23:47:23.132Z,7.70
2023-08-27T23:49:50.130Z,8.48
2023-08-27T23:52:17.078Z,8.75
2023-08-27T23:54:44.111Z,9.35
2023-08-27T23:57:31.429Z,9.20
